Time;durP1;ratioP1;P1;durP2;ratioP2;P2;SDS_P1;SDS_P2;PMS_P1;PMS_P2;Temp;Humidity;BMP_temperature;BMP_pressure;BME280_temperature;BME280_humidity;BME280_pressure;Samples;Min_cycle;Max_cycle;Signal;HPM_P1;HPM_P2
2023/03/24 00:02:12;;;;;;;3.27;2.63;;;;;;;17.67;48.99;96599.81;5046426;28;20199;-71
2023/03/24 00:04:42;;;;;;;3.67;2.67;;;;;;;17.65;49.24;96589.41;5053592;28;20604;-71
2023/03/24 00:07:14;;;;;;;2.83;2.57;;;;;;;17.49;49.65;96581.97;5051723;28;20172;-72
2023/03/24 00:09:43;;;;;;;3.13;2.77;;;;;;;17.50;49.64;96594.22;5042470;28;20414;-71
2023/03/24 00:12:09;;;;;;;2.83;2.63;;;;;;;17.52;49.60;96583.41;5048280;28;20552;-71
2023/03/24 00:14:37;;;;;;;2.40;2.20;;;;;;;17.58;49.35;96587.84;5049167;28;20491;-72
2023/03/24 00:17:04;;;;;;;3.63;2.83;;;;;;;17.56;49.54;96582.75;5045955;28;20434;-70
2023/03/24 00:19:32;;;;;;;3.33;2.77;;;;;;;17.48;49.32;96588.31;5051683;28;20462;-72
2023/03/24 00:21:59;;;;;;;3.30;2.83;;;;;;;17.48;49.37;96581.16;5049432;28;20458;-71
2023/03/24 00:24:25;;;;;;;3.37;2.87;;;;;;;17.53;49.24;96580.53;5056720;28;20452;-71
2023/03/24 00:26:50;;;;;;;7.30;2.90;;;;;;;17.45;48.92;96581.56;5012124;28;20421;-71
2023/03/24 00:29:16;;;;;;;4.67;2.80;;;;;;;17.50;48.77;96573.03;5048218;28;20179;-70
2023/03/24 00:31:42;;;;;;;2.90;2.60;;;;;;;17.48;48.63;96564.47;5048435;28;20190;-71
2023/03/24 00:34:09;;;;;;;2.73;2.53;;;;;;;17.46;48.76;96559.34;5048448;28;20201;-71
2023/03/24 00:36:35;;;;;;;3.00;2.53;;;;;;;17.45;48.80;96560.38;5054994;28;20171;-71
2023/03/24 00:39:02;;;;;;;5.30;3.20;;;;;;;17.35;49.00;96552.09;5050683;28;20417;-70
2023/03/24 00:41:28;;;;;;;3.90;2.90;;;;;;;17.32;48.88;96548.03;5040408;28;21012;-70
2023/03/24 00:43:57;;;;;;;3.57;2.93;;;;;;;17.15;48.69;96544.22;5049812;28;20500;-71
2023/03/24 00:46:28;;;;;;;3.40;2.80;;;;;;;17.18;48.48;96544.66;5049122;28;20825;-71
2023/03/24 00:49:01;;;;;;;6.40;2.87;;;;;;;17.11;48.33;96537.75;5055192;28;20418;-71
2023/03/24 00:51:38;;;;;;;3.60;2.80;;;;;;;17.03;47.94;96542.25;5051654;28;20452;-71
2023/03/24 00:54:04;;;;;;;6.13;3.10;;;;;;;17.11;48.10;96527.97;5048415;28;20453;-71
2023/03/24 00:56:32;;;;;;;2.50;2.30;;;;;;;17.13;47.90;96520.63;5054196;28;20504;-71
2023/03/24 00:58:57;;;;;;;8.27;2.93;;;;;;;17.16;47.92;96514.09;5048502;28;21199;-72
2023/03/24 01:01:28;;;;;;;3.00;2.10;;;;;;;17.20;47.71;96504.72;5056125;28;20453;-71
2023/03/24 01:03:55;;;;;;;3.90;3.00;;;;;;;17.13;47.77;96512.69;5048048;28;20172;-71
2023/03/24 01:06:22;;;;;;;2.77;2.50;;;;;;;17.18;47.48;96507.59;5039532;28;20422;-70
2023/03/24 01:08:49;;;;;;;8.83;2.90;;;;;;;17.16;47.51;96500.84;5050661;28;20423;-71
2023/03/24 01:11:15;;;;;;;7.60;2.30;;;;;;;17.15;47.25;96504.53;5059186;28;20520;-70
2023/03/24 01:13:41;;;;;;;2.70;2.50;;;;;;;17.10;47.42;96497.22;5052467;28;20481;-72
2023/03/24 01:16:07;;;;;;;3.63;2.73;;;;;;;17.11;47.28;96493.56;5044020;28;20413;-72
2023/03/24 01:18:33;;;;;;;3.20;2.60;;;;;;;17.17;47.11;96491.88;5047572;28;20513;-71
2023/03/24 01:21:00;;;;;;;11.23;3.10;;;;;;;17.19;47.20;96479.25;5056410;28;20487;-72
2023/03/24 01:23:26;;;;;;;2.50;2.30;;;;;;;17.18;47.28;96485.56;5045092;28;20422;-71
2023/03/24 01:25:52;;;;;;;3.80;2.40;;;;;;;17.20;47.15;96472.94;5042532;28;20851;-70
2023/03/24 01:28:23;;;;;;;4.13;2.90;;;;;;;17.22;47.20;96476.19;5054851;28;20452;-71
2023/03/24 01:30:52;;;;;;;2.90;2.60;;;;;;;17.24;47.03;96481.28;5058492;28;20428;-70
2023/03/24 01:33:17;;;;;;;3.30;2.60;;;;;;;17.26;46.89;96477.41;5049535;28;20425;-71
2023/03/24 01:35:43;;;;;;;3.10;2.80;;;;;;;17.22;47.10;96465.59;5049625;28;20877;-71
2023/03/24 01:38:11;;;;;;;2.80;2.60;;;;;;;17.26;47.14;96463.34;5044573;28;20262;-71
2023/03/24 01:40:39;;;;;;;3.17;2.87;;;;;;;17.23;47.11;96455.81;5050332;28;20425;-71
2023/03/24 01:43:06;;;;;;;2.57;2.37;;;;;;;17.23;46.87;96454.00;5049358;28;20425;-72
2023/03/24 01:45:37;;;;;;;3.67;2.43;;;;;;;17.20;46.83;96457.06;5044456;28;20442;-71
2023/03/24 01:48:07;;;;;;;3.40;2.53;;;;;;;17.27;46.73;96452.53;5048282;28;20433;-71
2023/03/24 01:50:33;;;;;;;6.40;2.73;;;;;;;17.28;46.88;96459.44;5046517;28;20419;-71
2023/03/24 01:52:59;;;;;;;3.23;2.63;;;;;;;17.18;46.87;96453.81;5046860;28;20440;-71
2023/03/24 01:55:25;;;;;;;2.57;2.20;;;;;;;17.24;46.74;96458.25;5046215;28;20207;-72
2023/03/24 01:57:54;;;;;;;3.87;3.03;;;;;;;17.22;46.95;96452.38;5055305;28;20182;-71
2023/03/24 02:00:20;;;;;;;2.50;2.30;;;;;;;17.22;46.85;96448.88;5038185;28;20855;-72
2023/03/24 02:02:57;;;;;;;3.20;2.90;;;;;;;17.22;46.90;96439.13;5043653;28;20444;-72
2023/03/24 02:05:25;;;;;;;6.60;5.50;;;;;;;17.20;46.98;96451.75;5043479;28;20440;-73
2023/03/24 02:08:05;;;;;;;4.40;3.13;;;;;;;17.18;47.21;96451.16;5047696;28;20421;-70
2023/03/24 02:10:32;;;;;;;6.20;4.50;;;;;;;17.19;47.37;96448.31;5037664;28;20865;-72
2023/03/24 02:12:58;;;;;;;6.90;4.10;;;;;;;17.20;47.08;96457.06;5043967;28;20428;-71
2023/03/24 02:15:25;;;;;;;4.27;3.40;;;;;;;17.15;47.09;96456.88;5048117;28;20815;-72
2023/03/24 02:18:28;;;;;;;3.10;2.80;;;;;;;17.16;46.83;96461.97;5047836;28;20228;-72
2023/03/24 02:21:23;;;;;;;3.90;2.57;;;;;;;17.13;46.88;96453.66;5058487;28;20445;-72
2023/03/24 02:24:27;;;;;;;3.00;2.70;;;;;;;17.14;47.04;96442.84;5039617;28;20510;-73
2023/03/24 02:27:29;;;;;;;3.00;2.70;;;;;;;17.23;46.51;96446.06;5048949;28;20471;-72
2023/03/24 02:30:10;;;;;;;2.83;2.27;;;;;;;17.15;46.47;96446.28;5044008;28;20417;-73
2023/03/24 02:32:53;;;;;;;3.80;2.40;;;;;;;17.10;46.69;96444.28;5045920;28;20434;-70
2023/03/24 02:36:15;;;;;;;3.30;2.40;;;;;;;17.15;46.68;96444.47;5042393;28;20491;-71
2023/03/24 02:39:05;;;;;;;4.30;2.20;;;;;;;17.10;46.65;96451.41;5025317;28;20426;-72
2023/03/24 02:41:43;;;;;;;2.03;1.93;;;;;;;17.12;46.43;96444.09;5015367;28;20463;-72
2023/03/24 02:44:21;;;;;;;2.00;1.77;;;;;;;17.11;46.35;96451.19;5035357;28;20449;-71
2023/03/24 02:47:01;;;;;;;6.07;2.10;;;;;;;17.15;46.39;96446.28;5044048;28;20799;-71
2023/03/24 02:49:55;;;;;;;1.90;1.80;;;;;;;17.16;46.31;96429.38;5043631;28;20425;-71
2023/03/24 02:52:45;;;;;;;2.70;1.93;;;;;;;17.19;46.53;96434.25;5041286;28;20426;-71
2023/03/24 02:55:35;;;;;;;2.27;2.00;;;;;;;17.21;46.44;96429.56;5042475;28;20448;-71
2023/03/24 02:58:04;;;;;;;2.50;2.30;;;;;;;17.17;46.37;96423.88;5038200;28;20438;-71
2023/03/24 03:00:41;;;;;;;2.90;2.20;;;;;;;17.24;46.53;96418.56;5048808;28;20425;-70
2023/03/24 03:03:17;;;;;;;2.73;2.20;;;;;;;17.24;46.52;96417.72;5052203;28;20432;-71
2023/03/24 03:05:52;;;;;;;6.10;2.00;;;;;;;17.19;46.50;96407.78;5046563;28;20515;-71
2023/03/24 03:08:19;;;;;;;5.73;1.83;;;;;;;17.12;46.82;96409.66;5056290;28;20876;-70
2023/03/24 03:10:47;;;;;;;3.70;2.10;;;;;;;17.18;46.43;96408.81;5045087;28;20454;-72
2023/03/24 03:13:21;;;;;;;2.27;2.07;;;;;;;17.22;46.46;96404.72;5046607;28;20516;-71
2023/03/24 03:15:50;;;;;;;9.93;4.17;;;;;;;17.28;46.12;96411.78;5042839;28;21057;-71
2023/03/24 03:18:20;;;;;;;3.00;2.00;;;;;;;17.27;46.12;96404.88;5047792;28;20446;-70
2023/03/24 03:20:53;;;;;;;18.37;2.80;;;;;;;17.23;46.18;96403.69;5047658;28;20441;-72
2023/03/24 03:23:23;;;;;;;2.77;2.07;;;;;;;17.18;46.38;96396.38;5053809;28;20421;-71
2023/03/24 03:25:52;;;;;;;2.20;2.00;;;;;;;17.23;46.42;96403.69;5045980;28;20441;-71
2023/03/24 03:28:22;;;;;;;2.57;2.03;;;;;;;17.26;46.24;96405.91;5056790;28;20926;-71
2023/03/24 03:30:54;;;;;;;3.13;1.83;;;;;;;17.11;46.24;96394.81;5048651;28;20777;-71
2023/03/24 03:33:37;;;;;;;2.13;1.93;;;;;;;17.20;46.40;96393.53;5049054;28;20491;-69
2023/03/24 03:36:08;;;;;;;2.60;1.93;;;;;;;17.23;45.83;96398.41;5048140;28;20541;-72
2023/03/24 03:38:55;;;;;;;1.90;1.80;;;;;;;17.23;45.86;96397.56;5048941;28;20426;-70
2023/03/24 03:41:21;;;;;;;3.40;2.10;;;;;;;17.25;45.68;96395.53;5039821;28;20465;-72
2023/03/24 03:43:47;;;;;;;2.27;1.90;;;;;;;17.23;45.66;96397.56;5044473;28;20429;-72
2023/03/24 03:46:14;;;;;;;3.03;1.80;;;;;;;17.29;45.63;96397.53;5045103;28;20285;-72
2023/03/24 03:48:40;;;;;;;2.67;2.10;;;;;;;17.23;45.48;96398.41;5050909;28;20429;-72
2023/03/24 03:51:07;;;;;;;2.47;2.27;;;;;;;17.39;45.50;96398.91;5054408;28;20425;-72
2023/03/24 03:53:39;;;;;;;3.63;2.30;;;;;;;17.29;45.66;96407.31;5047484;28;20557;-72
2023/03/24 03:56:05;;;;;;;1.93;1.83;;;;;;;17.35;45.18;96401.16;5047004;28;20437;-72
2023/03/24 03:58:31;;;;;;;2.30;2.10;;;;;;;17.38;45.13;96406.03;5049150;28;20515;-72
2023/03/24 04:00:57;;;;;;;2.23;2.00;;;;;;;17.26;45.24;96403.28;5049418;28;20186;-72
2023/03/24 04:03:48;;;;;;;3.03;2.00;;;;;;;17.31;45.17;96403.41;5047469;28;20187;-72
2023/03/24 04:06:24;;;;;;;3.40;2.40;;;;;;;17.33;45.03;96396.06;5038151;28;20187;-72
2023/03/24 04:09:00;;;;;;;7.60;2.40;;;;;;;17.35;45.04;96396.69;5038460;28;20930;-71
2023/03/24 04:11:35;;;;;;;2.80;2.17;;;;;;;17.27;45.15;96399.56;5046903;28;20434;-71
2023/03/24 04:14:11;;;;;;;2.13;1.93;;;;;;;17.29;45.03;96399.38;5051450;28;20454;-71
2023/03/24 04:16:53;;;;;;;4.50;2.00;;;;;;;17.38;45.00;96411.31;5052616;28;20433;-71
2023/03/24 04:19:23;;;;;;;3.90;2.20;;;;;;;17.38;44.89;96406.03;5037942;28;20409;-71
2023/03/24 04:22:01;;;;;;;4.00;2.43;;;;;;;17.44;44.65;96405.16;5041771;28;20454;-71
2023/03/24 04:24:41;;;;;;;2.67;2.20;;;;;;;17.38;44.88;96395.44;5038191;28;20453;-71
2023/03/24 04:27:37;;;;;;;3.20;2.33;;;;;;;17.48;44.70;96384.34;5052476;28;21067;-71
2023/03/24 04:30:44;;;;;;;3.00;2.40;;;;;;;17.34;44.83;96379.16;5054356;28;20500;-71
2023/03/24 04:33:10;;;;;;;3.60;2.10;;;;;;;17.42;44.71;96371.97;5046003;28;20433;-71
2023/03/24 04:35:48;;;;;;;2.20;1.80;;;;;;;17.48;44.55;96385.16;5056116;28;20952;-70
2023/03/24 04:38:17;;;;;;;3.30;2.20;;;;;;;17.45;44.73;96385.56;5046694;28;20198;-71
2023/03/24 04:40:44;;;;;;;4.63;2.20;;;;;;;17.41;44.98;96383.59;5052703;28;20483;-71
2023/03/24 04:43:12;;;;;;;2.97;2.17;;;;;;;17.46;44.81;96391.69;5038920;28;20461;-71
2023/03/24 04:45:38;;;;;;;3.00;2.53;;;;;;;17.49;44.99;96389.44;5045894;28;21238;-72
2023/03/24 04:48:07;;;;;;;3.50;2.30;;;;;;;17.44;45.13;96399.03;5052987;28;20417;-71
2023/03/24 04:50:38;;;;;;;3.00;2.07;;;;;;;17.49;45.13;96391.28;5046263;28;20194;-71
2023/03/24 04:53:06;;;;;;;2.80;2.40;;;;;;;17.39;45.58;96401.53;5040608;28;20418;-71
2023/03/24 04:55:36;;;;;;;2.00;1.80;;;;;;;17.41;45.48;96404.78;5045259;28;20490;-71
2023/03/24 04:58:02;;;;;;;2.37;1.90;;;;;;;17.40;46.09;96411.91;5054559;28;20937;-72
2023/03/24 05:00:28;;;;;;;4.90;2.17;;;;;;;17.46;45.95;96418.19;5039162;28;20449;-71
2023/03/24 05:02:53;;;;;;;2.53;2.20;;;;;;;17.41;46.32;96428.59;5045311;28;20893;-71
2023/03/24 05:05:19;;;;;;;2.43;2.00;;;;;;;17.17;47.22;96437.13;5042391;28;20190;-72
2023/03/24 05:07:44;;;;;;;2.00;1.80;;;;;;;17.55;46.35;96445.22;5049935;28;20682;-72
2023/03/24 05:10:10;;;;;;;2.83;2.07;;;;;;;17.38;47.01;96447.59;5047663;28;20179;-70
2023/03/24 05:12:36;;;;;;;1.90;1.80;;;;;;;17.53;47.08;96455.22;5043197;28;20206;-71
2023/03/24 05:15:02;;;;;;;2.27;2.07;;;;;;;17.61;46.87;96455.78;5044361;28;20205;-71
2023/03/24 05:17:27;;;;;;;1.87;1.77;;;;;;;17.74;46.56;96464.66;5040790;28;20261;-70
2023/03/24 05:19:53;;;;;;;1.90;1.80;;;;;;;17.73;46.82;96479.72;5050267;28;20426;-71
2023/03/24 05:22:18;;;;;;;1.90;1.70;;;;;;;17.62;47.24;96489.19;5038208;28;20206;-71
2023/03/24 05:24:44;;;;;;;2.03;1.87;;;;;;;17.59;47.65;96492.25;5037836;28;20692;-71
2023/03/24 05:27:09;;;;;;;3.27;2.17;;;;;;;17.63;48.23;96493.47;5036552;28;20206;-72
2023/03/24 05:29:34;;;;;;;3.73;2.47;;;;;;;17.54;49.14;96501.88;5043004;28;20283;-71
2023/03/24 05:32:00;;;;;;;3.60;2.40;;;;;;;17.56;49.47;96503.28;5029802;28;20324;-72
2023/03/24 05:34:25;;;;;;;4.77;2.10;;;;;;;17.57;49.92;96515.50;5053387;28;20206;-72
2023/03/24 05:36:51;;;;;;;3.50;2.60;;;;;;;17.51;50.93;96513.72;5043457;28;20258;-71
2023/03/24 05:39:16;;;;;;;2.50;2.03;;;;;;;17.50;51.08;96512.91;5047811;28;20179;-73
2023/03/24 05:41:42;;;;;;;5.27;2.37;;;;;;;17.40;51.91;96509.91;5046746;28;20294;-73
2023/03/24 05:44:07;;;;;;;4.13;2.40;;;;;;;17.35;52.27;96513.19;5039016;28;21001;-71
2023/03/24 05:46:32;;;;;;;3.93;2.60;;;;;;;17.29;52.72;96519.31;5049450;28;20183;-71
2023/03/24 05:48:58;;;;;;;2.93;2.37;;;;;;;17.27;52.66;96525.88;5034177;28;20203;-70
2023/03/24 05:51:23;;;;;;;4.47;2.73;;;;;;;17.35;52.46;96531.72;5046800;28;20210;-72
2023/03/24 05:53:50;;;;;;;3.70;2.50;;;;;;;17.30;53.07;96520.16;5039307;28;20597;-71
2023/03/24 05:56:16;;;;;;;3.93;3.17;;;;;;;17.26;53.29;96529.53;5043107;28;20183;-71
2023/03/24 05:58:43;;;;;;;4.77;4.27;;;;;;;17.23;53.62;96525.47;5053411;28;20421;-72
2023/03/24 06:01:09;;;;;;;3.77;2.83;;;;;;;17.18;54.06;96528.75;5038959;28;20230;-70
2023/03/24 06:03:37;;;;;;;3.73;2.83;;;;;;;17.20;54.23;96528.53;5038264;28;20421;-71
2023/03/24 06:06:05;;;;;;;3.47;2.70;;;;;;;17.18;54.70;96525.28;5030237;28;20994;-69
2023/03/24 06:08:32;;;;;;;8.60;6.30;;;;;;;17.19;54.89;96524.25;5039565;28;20427;-69
2023/03/24 06:11:02;;;;;;;16.20;11.83;;;;;;;17.22;55.09;96521.22;5048804;28;20472;-72
2023/03/24 06:13:29;;;;;;;5.20;2.97;;;;;;;17.16;55.33;96522.03;5043394;28;21002;-70
2023/03/24 06:15:57;;;;;;;16.47;11.20;;;;;;;17.20;55.40;96513.44;5046811;28;20547;-69
2023/03/24 06:18:26;;;;;;;3.97;2.83;;;;;;;16.95;56.08;96518.66;5039149;28;20454;-71
2023/03/24 06:20:59;;;;;;;4.80;3.50;;;;;;;17.07;55.97;96518.00;5048643;28;21237;-70
2023/03/24 06:23:28;;;;;;;14.03;10.97;;;;;;;17.14;56.18;96514.31;5037132;28;20422;-70
2023/03/24 06:25:54;;;;;;;6.57;4.10;;;;;;;17.21;55.90;96522.22;5037699;28;20528;-69
2023/03/24 06:28:20;;;;;;;7.60;4.57;;;;;;;17.22;55.98;96523.84;5035193;28;20983;-71
2023/03/24 06:30:47;;;;;;;4.60;2.80;;;;;;;17.19;55.99;96526.91;5032583;28;20480;-72
2023/03/24 06:33:13;;;;;;;3.00;2.70;;;;;;;17.14;56.32;96524.06;5039042;28;20798;-72
2023/03/24 06:35:39;;;;;;;6.13;3.20;;;;;;;17.12;56.39;96529.59;5039935;28;20469;-71
2023/03/24 06:38:05;;;;;;;3.50;2.93;;;;;;;17.13;56.76;96519.84;5030745;28;20953;-73
2023/03/24 06:40:31;;;;;;;5.13;2.60;;;;;;;17.14;56.87;96521.44;5039072;28;20191;-71
2023/03/24 06:42:57;;;;;;;4.47;3.00;;;;;;;17.06;57.11;96529.63;5049983;28;20483;-70
2023/03/24 06:45:23;;;;;;;6.27;3.10;;;;;;;17.03;57.31;96539.59;5049237;28;20444;-71
2023/03/24 06:47:51;;;;;;;8.23;3.00;;;;;;;17.02;57.42;96530.03;5035071;28;20180;-71
2023/03/24 06:50:16;;;;;;;3.17;2.50;;;;;;;16.94;57.46;96537.38;5038320;28;20188;-70
2023/03/24 06:52:42;;;;;;;7.33;3.83;;;;;;;16.93;57.74;96536.56;5048234;28;21082;-71
2023/03/24 06:55:08;;;;;;;4.33;3.47;;;;;;;16.97;57.51;96543.09;5036239;28;20582;-71
2023/03/24 06:57:33;;;;;;;4.23;2.87;;;;;;;16.77;58.10;96537.00;5045203;28;20650;-70
2023/03/24 06:59:59;;;;;;;3.50;2.70;;;;;;;16.96;57.90;96545.94;5037708;28;20780;-71
2023/03/24 07:02:24;;;;;;;7.97;2.80;;;;;;;16.80;58.21;96536.59;5038226;28;20287;-71
2023/03/24 07:04:52;;;;;;;6.63;4.37;;;;;;;16.92;58.32;96540.22;5038809;28;20196;-70
2023/03/24 07:07:18;;;;;;;3.13;2.87;;;;;;;16.98;58.20;96549.19;5036483;28;20207;-71
2023/03/24 07:09:43;;;;;;;4.17;3.20;;;;;;;16.86;58.42;96547.16;5037796;28;20443;-71
2023/03/24 07:12:10;;;;;;;4.80;3.63;;;;;;;16.70;59.15;96556.38;5039026;28;20653;-71
2023/03/24 07:14:35;;;;;;;3.20;2.80;;;;;;;16.39;60.43;96557.84;5041628;28;20704;-72
2023/03/24 07:17:01;;;;;;;8.47;3.80;;;;;;;16.42;60.42;96568.00;5030925;28;20449;-73
2023/03/24 07:19:26;;;;;;;3.90;3.50;;;;;;;16.34;61.45;96567.41;5044926;28;20541;-71
2023/03/24 07:21:52;;;;;;;4.20;3.43;;;;;;;16.36;61.56;96571.50;5044140;28;20664;-72
2023/03/24 07:24:18;;;;;;;7.80;3.40;;;;;;;16.29;61.84;96568.00;5037314;28;20195;-72
2023/03/24 07:26:44;;;;;;;7.37;3.57;;;;;;;16.54;61.21;96575.31;5040727;28;20732;-72
2023/03/24 07:29:10;;;;;;;4.90;3.73;;;;;;;16.37;62.20;96575.75;5034785;28;20415;-71
2023/03/24 07:31:38;;;;;;;4.90;3.37;;;;;;;16.24;62.54;96578.41;5036903;28;20223;-72
2023/03/24 07:34:07;;;;;;;5.13;3.80;;;;;;;16.18;63.07;96587.13;5034861;28;20500;-71
2023/03/24 07:36:33;;;;;;;6.40;3.53;;;;;;;16.11;63.10;96580.03;5041594;28;20411;-73
2023/03/24 07:38:58;;;;;;;3.63;3.33;;;;;;;16.32;62.90;96586.13;5032908;28;20856;-71
2023/03/24 07:41:25;;;;;;;4.00;3.60;;;;;;;16.35;62.91;96587.53;5032870;28;20582;-72
2023/03/24 07:43:51;;;;;;;7.90;3.40;;;;;;;16.37;62.77;96602.19;5041243;28;20194;-70
2023/03/24 07:46:16;;;;;;;6.40;3.37;;;;;;;16.29;63.21;96586.53;5041653;28;20442;-72
2023/03/24 07:48:42;;;;;;;5.40;3.40;;;;;;;16.28;63.42;96592.81;5041458;28;20189;-72
2023/03/24 07:51:07;;;;;;;7.03;3.40;;;;;;;16.37;63.03;96601.38;5038649;28;20688;-72
2023/03/24 07:53:32;;;;;;;6.80;3.50;;;;;;;16.31;63.50;96597.72;5038936;28;20222;-72
2023/03/24 07:55:58;;;;;;;3.90;3.50;;;;;;;16.32;63.15;96599.34;5052670;28;20202;-70
2023/03/24 07:58:24;;;;;;;6.13;3.90;;;;;;;16.30;63.95;96601.38;5037879;28;20179;-71
2023/03/24 08:00:49;;;;;;;4.63;3.70;;;;;;;16.29;63.83;96599.75;5040614;28;20278;-71
2023/03/24 08:03:15;;;;;;;8.87;3.63;;;;;;;16.20;64.40;96591.19;5034007;28;20200;-72
2023/03/24 08:05:42;;;;;;;4.33;3.60;;;;;;;16.26;64.18;96598.31;5034069;28;20207;-71
2023/03/24 08:08:07;;;;;;;6.47;4.10;;;;;;;16.39;63.83;96602.00;5048469;28;20182;-71
2023/03/24 08:10:33;;;;;;;5.87;4.10;;;;;;;16.41;64.01;96602.59;5032604;28;20414;-69
2023/03/24 08:12:58;;;;;;;4.73;3.63;;;;;;;16.38;64.08;96598.50;5046254;28;20206;-72
2023/03/24 08:15:25;;;;;;;6.37;3.83;;;;;;;16.20;64.80;96606.25;5039675;28;20203;-72
2023/03/24 08:17:51;;;;;;;6.83;3.70;;;;;;;16.40;64.24;96606.25;5040323;28;20203;-72
2023/03/24 08:20:18;;;;;;;4.17;3.77;;;;;;;16.33;64.33;96598.31;5044460;28;20415;-72
2023/03/24 08:22:48;;;;;;;4.20;3.30;;;;;;;16.49;64.00;96588.34;5038214;28;20203;-72
2023/03/24 08:25:15;;;;;;;5.90;3.90;;;;;;;16.40;64.57;96569.25;5043591;28;20915;-71
2023/03/24 08:27:43;;;;;;;4.10;3.40;;;;;;;16.54;64.64;96570.03;5041784;28;20480;-70
2023/03/24 08:30:12;;;;;;;7.50;3.23;;;;;;;16.47;64.35;96575.31;5041435;28;20879;-71
2023/03/24 08:32:52;;;;;;;7.03;3.27;;;;;;;16.31;65.19;96563.34;5035305;28;20782;-71
2023/03/24 08:35:20;;;;;;;4.90;3.60;;;;;;;16.35;65.18;96538.13;5030032;28;20451;-71
2023/03/24 08:37:46;;;;;;;5.17;3.30;;;;;;;16.40;64.91;96517.16;5041252;28;20927;-72
2023/03/24 08:40:17;;;;;;;3.03;2.73;;;;;;;16.37;65.16;96504.38;5042927;28;20421;-71
2023/03/24 08:42:46;;;;;;;3.63;3.13;;;;;;;16.19;65.18;96470.59;5039175;28;20199;-71
2023/03/24 08:45:11;;;;;;;5.43;3.60;;;;;;;16.27;65.40;96485.44;5039484;28;20950;-71
2023/03/24 08:47:37;;;;;;;4.00;3.60;;;;;;;16.26;65.50;96478.53;5039199;28;20426;-70
2023/03/24 08:50:04;;;;;;;5.83;3.63;;;;;;;16.15;65.80;96506.41;5032621;28;20746;-71
2023/03/24 08:52:29;;;;;;;4.77;2.90;;;;;;;16.05;65.92;96533.25;5036660;28;20564;-72
2023/03/24 08:54:55;;;;;;;3.93;3.43;;;;;;;16.34;65.23;96533.84;5048682;28;20445;-71
2023/03/24 08:57:21;;;;;;;3.80;3.50;;;;;;;15.72;66.90;96526.09;5047687;28;20273;-71
2023/03/24 08:59:46;;;;;;;3.20;2.90;;;;;;;16.20;65.63;96545.47;5047198;28;20187;-71
2023/03/24 09:02:12;;;;;;;3.77;3.43;;;;;;;16.19;65.50;96571.06;5047612;28;20683;-71
2023/03/24 09:04:37;;;;;;;3.30;3.00;;;;;;;16.28;64.96;96574.31;5036520;28;20576;-71
2023/03/24 09:07:03;;;;;;;3.40;2.77;;;;;;;16.37;64.74;96574.94;5034593;28;20175;-72
2023/03/24 09:09:29;;;;;;;3.90;2.77;;;;;;;16.35;64.68;96547.88;5037615;28;20212;-71
2023/03/24 09:11:55;;;;;;;6.40;3.13;;;;;;;16.28;64.38;96559.28;5036553;28;20287;-71
2023/03/24 09:14:21;;;;;;;6.50;3.47;;;;;;;16.26;64.19;96557.84;5046231;28;20462;-71
2023/03/24 09:16:48;;;;;;;2.70;2.50;;;;;;;16.18;64.34;96561.53;5042125;28;20198;-71
2023/03/24 09:19:17;;;;;;;3.30;2.30;;;;;;;16.45;64.04;96568.63;5035105;28;20414;-71
2023/03/24 09:21:45;;;;;;;7.40;3.07;;;;;;;16.24;64.38;96559.91;5032860;28;20998;-71
2023/03/24 09:24:10;;;;;;;2.90;2.70;;;;;;;16.38;63.60;96552.75;5039814;28;20418;-71
2023/03/24 09:26:36;;;;;;;2.97;2.70;;;;;;;16.51;62.55;96560.69;5040928;28;20931;-71
2023/03/24 09:29:02;;;;;;;2.80;2.43;;;;;;;16.54;62.12;96570.03;5038301;28;20219;-72
2023/03/24 09:31:27;;;;;;;2.97;2.77;;;;;;;16.57;62.19;96574.91;4999388;28;1082223;-72
2023/03/24 09:33:53;;;;;;;3.20;2.90;;;;;;;16.82;61.67;96574.25;5040989;28;20237;-72
2023/03/24 09:36:18;;;;;;;2.70;2.50;;;;;;;16.74;62.05;96583.22;5042856;28;20674;-72
2023/03/24 09:38:44;;;;;;;2.63;2.43;;;;;;;16.95;61.07;96553.06;5036898;28;20274;-72
2023/03/24 09:41:16;;;;;;;2.73;2.53;;;;;;;17.09;60.96;96555.69;5040281;28;20182;-72
2023/03/24 09:43:45;;;;;;;3.10;2.63;;;;;;;17.44;60.38;96558.78;5045484;28;20382;-72
2023/03/24 09:46:21;;;;;;;3.17;2.83;;;;;;;17.32;59.46;96582.47;5034104;28;20453;-73
2023/03/24 09:48:56;;;;;;;3.10;2.53;;;;;;;17.50;59.50;96560.56;5036753;28;20505;-71
2023/03/24 09:51:46;;;;;;;3.03;2.73;;;;;;;17.69;59.01;96571.28;5036346;28;20425;-71
2023/03/24 09:54:11;;;;;;;2.73;2.53;;;;;;;17.81;58.29;96563.44;5033828;28;20424;-71
2023/03/24 09:56:42;;;;;;;2.90;2.50;;;;;;;17.63;58.36;96561.53;5039269;28;21047;-71
2023/03/24 09:59:19;;;;;;;2.77;2.37;;;;;;;17.66;58.43;96555.81;5036563;28;20271;-71
2023/03/24 10:01:44;;;;;;;2.60;2.40;;;;;;;18.04;57.57;96560.28;5045012;28;20464;-71
2023/03/24 10:04:18;;;;;;;3.03;2.37;;;;;;;18.51;56.22;96541.31;5050704;28;20425;-72
2023/03/24 10:06:44;;;;;;;3.40;2.70;;;;;;;19.06;55.68;96550.31;5040498;28;20198;-71
2023/03/24 10:09:33;;;;;;;2.90;2.60;;;;;;;18.88;54.65;96540.50;5051762;28;20430;-70
2023/03/24 10:12:23;;;;;;;3.67;2.77;;;;;;;18.74;54.44;96574.34;5047247;28;20409;-71
2023/03/24 10:15:25;;;;;;;2.33;2.13;;;;;;;18.65;54.02;96549.94;5048103;28;20453;-73
2023/03/24 10:18:00;;;;;;;4.90;2.40;;;;;;;18.88;53.74;96565.22;5061181;28;20963;-71
2023/03/24 10:20:51;;;;;;;6.00;2.43;;;;;;;19.07;53.48;96549.28;5037518;28;20421;-72
2023/03/24 10:23:36;;;;;;;2.70;2.47;;;;;;;19.18;52.80;96547.75;5049814;28;20468;-71
2023/03/24 10:26:33;;;;;;;2.13;1.80;;;;;;;19.30;52.40;96553.94;5035995;28;20557;-73
2023/03/24 10:29:06;;;;;;;2.57;1.80;;;;;;;19.51;51.82;96553.66;5045783;28;20449;-72
2023/03/24 10:31:33;;;;;;;1.83;1.70;;;;;;;19.58;50.95;96576.47;5035585;28;20432;-72
2023/03/24 10:33:59;;;;;;;1.63;1.53;;;;;;;19.34;49.69;96548.97;5032910;28;20418;-72
2023/03/24 10:36:25;;;;;;;1.70;1.60;;;;;;;19.38;49.73;96563.44;5036991;28;20931;-72
2023/03/24 10:38:50;;;;;;;2.53;1.30;;;;;;;19.09;48.91;96579.09;5052655;28;20190;-72
2023/03/24 10:41:18;;;;;;;1.20;1.10;;;;;;;18.93;49.35;96563.72;5037133;28;20191;-72
2023/03/24 10:43:44;;;;;;;2.00;1.40;;;;;;;19.18;49.07;96561.03;5037562;28;20254;-72
2023/03/24 10:46:13;;;;;;;3.03;1.50;;;;;;;19.18;49.70;96583.06;5035635;28;20954;-72
2023/03/24 10:48:39;;;;;;;1.70;1.40;;;;;;;19.27;49.84;96572.16;5034442;28;20183;-72
2023/03/24 10:51:05;;;;;;;5.53;1.97;;;;;;;19.39;49.00;96588.97;5042984;28;20414;-72
2023/03/24 10:53:32;;;;;;;2.07;1.30;;;;;;;19.34;49.06;96584.31;5055106;28;20194;-71
2023/03/24 10:55:58;;;;;;;1.60;1.20;;;;;;;19.18;48.98;96588.38;5052829;28;20449;-73
2023/03/24 10:58:30;;;;;;;1.57;1.27;;;;;;;19.12;48.97;96597.25;5052666;28;20509;-72
2023/03/24 11:00:56;;;;;;;1.60;1.23;;;;;;;18.91;49.39;96597.63;5059699;28;20952;-74
2023/03/24 11:03:28;;;;;;;3.17;1.47;;;;;;;19.21;48.88;96599.59;5054614;28;20457;-72
2023/03/24 11:05:59;;;;;;;3.40;1.40;;;;;;;18.93;49.28;96598.25;5057672;28;20440;-72
2023/03/24 11:08:27;;;;;;;3.33;1.27;;;;;;;18.91;48.99;96597.63;5054300;28;20430;-72
2023/03/24 11:10:53;;;;;;;2.00;1.40;;;;;;;19.09;48.53;96584.41;5050114;28;20434;-73
2023/03/24 11:13:27;;;;;;;1.80;1.33;;;;;;;19.38;48.00;96603.28;5052185;28;20440;-72
2023/03/24 11:15:56;;;;;;;2.27;1.50;;;;;;;19.52;47.65;96593.28;5050263;28;20537;-73
2023/03/24 11:18:21;;;;;;;1.17;1.03;;;;;;;19.57;47.16;96589.97;5040841;28;20458;-71
2023/03/24 11:20:59;;;;;;;1.60;1.20;;;;;;;19.31;47.54;96586.59;5059062;28;20444;-73
2023/03/24 11:23:31;;;;;;;1.27;1.10;;;;;;;19.08;47.46;96596.06;5040833;28;20187;-72
2023/03/24 11:26:05;;;;;;;1.60;1.30;;;;;;;19.29;46.98;96607.25;5048691;28;20867;-72
2023/03/24 11:28:36;;;;;;;1.80;1.20;;;;;;;19.20;47.16;96617.41;5055385;28;20421;-74
2023/03/24 11:31:07;;;;;;;1.10;1.00;;;;;;;19.13;47.24;96612.16;5045707;28;20524;-72
2023/03/24 11:33:34;;;;;;;1.47;1.13;;;;;;;19.30;46.59;96607.06;5048440;28;20503;-71
2023/03/24 11:36:00;;;;;;;1.53;1.20;;;;;;;19.03;46.84;96606.53;5044823;28;20529;-71
2023/03/24 11:38:30;;;;;;;1.40;0.90;;;;;;;19.24;46.58;96609.78;5052483;28;20424;-72
2023/03/24 11:40:59;;;;;;;2.33;1.00;;;;;;;19.28;46.48;96613.63;5059089;28;20175;-71
2023/03/24 11:43:26;;;;;;;1.63;1.10;;;;;;;19.28;46.22;96610.97;5058277;28;20416;-71
2023/03/24 11:46:07;;;;;;;2.00;1.17;;;;;;;19.13;46.25;96612.16;5050158;28;20449;-71
2023/03/24 11:48:51;;;;;;;2.77;0.80;;;;;;;19.11;45.93;96614.22;5050506;28;20990;-71